createdAt,value
2023-04-11T00:18:58.168Z,0.00
2023-04-11T00:19:58.147Z,0.00
2023-04-11T00:20:58.160Z,0.00
2023-04-11T00:21:58.159Z,0.00
2023-04-11T00:22:58.166Z,0.00
2023-04-11T00:23:58.168Z,0.00
2023-04-11T00:24:58.177Z,0.00
2023-04-11T00:25:58.176Z,0.00
2023-04-11T00:26:58.196Z,0.00
2023-04-11T00:27:58.195Z,0.00
2023-04-11T00:28:58.204Z,0.00
2023-04-11T00:29:58.202Z,0.00
2023-04-11T00:30:58.216Z,0.00
2023-04-11T00:31:58.266Z,0.00
2023-04-11T00:32:58.284Z,0.00
2023-04-11T00:33:58.247Z,0.00
2023-04-11T00:34:58.254Z,0.00
2023-04-11T00:35:58.264Z,0.00
2023-04-11T00:36:58.275Z,0.00
2023-04-11T00:37:58.244Z,0.00
2023-04-11T00:38:58.376Z,0.00
2023-04-11T00:39:58.256Z,0.00
2023-04-11T00:40:58.268Z,0.00
2023-04-11T00:41:58.270Z,0.00
2023-04-11T00:42:58.280Z,0.00
2023-04-11T00:43:58.280Z,0.00
2023-04-11T00:44:58.296Z,0.00
2023-04-11T00:45:58.330Z,0.00
2023-04-11T00:46:58.302Z,0.00
2023-04-11T00:47:58.355Z,0.00
2023-04-11T00:48:58.585Z,0.00
2023-04-11T00:49:58.316Z,0.00
2023-04-11T00:50:58.339Z,0.00
2023-04-11T00:51:58.332Z,0.00
2023-04-11T00:52:58.337Z,0.00
2023-04-11T00:53:58.335Z,0.00
2023-04-11T00:54:58.352Z,0.00
2023-04-11T00:55:58.345Z,0.00
2023-04-11T00:56:58.357Z,0.00
2023-04-11T00:57:58.358Z,0.00
2023-04-11T00:58:58.368Z,0.00
2023-04-11T00:59:58.371Z,0.00
2023-04-11T01:00:58.400Z,0.00
2023-04-11T01:01:58.514Z,0.00
2023-04-11T01:02:58.517Z,0.00
2023-04-11T01:03:58.551Z,0.00
2023-04-11T01:04:58.404Z,0.00
2023-04-11T01:05:58.406Z,0.00
2023-04-11T01:06:58.439Z,0.00
2023-04-11T01:07:58.414Z,0.00
2023-04-11T01:08:58.555Z,0.00
2023-04-11T01:09:58.430Z,0.00
2023-04-11T01:10:58.429Z,0.00
2023-04-11T01:11:58.441Z,0.00
2023-04-11T01:12:58.442Z,0.00
2023-04-11T01:13:58.448Z,0.00
2023-04-11T01:14:58.473Z,0.00
2023-04-11T01:15:58.474Z,0.00
2023-04-11T01:16:58.554Z,0.00
2023-04-11T01:17:58.548Z,0.00
2023-04-11T01:18:58.476Z,0.00
2023-04-11T01:19:58.479Z,0.00
2023-04-11T01:20:58.481Z,0.00
2023-04-11T01:21:58.495Z,0.00
2023-04-11T01:22:58.521Z,0.00
2023-04-11T01:23:58.511Z,0.00
2023-04-11T01:24:58.500Z,0.00
2023-04-11T01:25:58.514Z,0.00
2023-04-11T01:26:58.524Z,0.00
2023-04-11T01:27:58.560Z,0.00
2023-04-11T01:28:58.527Z,0.00
2023-04-11T01:29:58.535Z,0.00
2023-04-11T01:30:58.551Z,0.00
2023-04-11T01:31:58.544Z,0.00
2023-04-11T01:32:58.596Z,0.00
2023-04-11T01:33:58.556Z,0.00
2023-04-11T01:34:58.599Z,0.00
2023-04-11T01:35:58.593Z,0.00
2023-04-11T01:36:58.593Z,0.00
2023-04-11T01:37:58.569Z,0.00
2023-04-11T01:38:58.638Z,0.00
2023-04-11T01:39:58.580Z,0.00
2023-04-11T01:40:58.587Z,0.00
2023-04-11T01:41:58.591Z,0.00
2023-04-11T01:42:58.600Z,0.00
2023-04-11T01:43:58.598Z,0.00
2023-04-11T01:44:58.611Z,0.00
2023-04-11T01:45:58.612Z,0.00
2023-04-11T01:46:58.620Z,0.00
2023-04-11T01:47:58.648Z,0.00
2023-04-11T01:48:58.866Z,0.00
2023-04-11T01:49:58.629Z,0.00
2023-04-11T01:50:58.637Z,0.00
2023-04-11T01:51:58.652Z,0.00
2023-04-11T01:52:58.673Z,0.00
2023-04-11T01:53:58.658Z,0.00
2023-04-11T01:54:58.672Z,0.00
2023-04-11T01:55:58.669Z,0.00
2023-04-11T01:56:58.669Z,0.00
2023-04-11T01:57:58.676Z,0.00
2023-04-11T01:58:58.668Z,0.00
2023-04-11T01:59:58.676Z,0.00
2023-04-11T02:00:58.692Z,0.00
2023-04-11T02:01:58.946Z,0.00
2023-04-11T02:02:58.811Z,0.00
2023-04-11T02:03:58.814Z,0.00
2023-04-11T02:04:58.710Z,0.00
2023-04-11T02:05:58.712Z,0.00
2023-04-11T02:06:58.712Z,0.00
2023-04-11T02:07:58.715Z,0.00
2023-04-11T02:08:58.723Z,0.00
2023-04-11T02:09:58.734Z,0.00
2023-04-11T02:10:58.759Z,0.00
2023-04-11T02:11:58.737Z,0.00
2023-04-11T02:12:58.748Z,0.00
2023-04-11T02:13:58.749Z,0.00
2023-04-11T02:14:58.759Z,0.00
2023-04-11T02:15:58.823Z,0.00
2023-04-11T02:16:58.762Z,0.00
2023-04-11T02:17:58.808Z,0.00
2023-04-11T02:18:58.787Z,0.00
2023-04-11T02:19:58.786Z,0.00
2023-04-11T02:20:58.784Z,0.00
2023-04-11T02:21:58.789Z,0.00
2023-04-11T02:22:58.819Z,0.00
2023-04-11T02:24:00.614Z,0.00
2023-04-11T02:24:58.802Z,0.00
2023-04-11T02:25:58.809Z,0.00
2023-04-11T02:26:58.926Z,0.00
2023-04-11T02:27:58.823Z,0.00
2023-04-11T02:28:58.822Z,0.00
2023-04-11T02:29:58.832Z,0.00
2023-04-11T02:30:58.885Z,0.00
2023-04-11T02:31:58.987Z,0.00
2023-04-11T02:32:58.900Z,0.00
2023-04-11T02:33:58.845Z,0.00
2023-04-11T02:34:58.852Z,0.00
2023-04-11T02:35:58.873Z,0.00
2023-04-11T02:36:58.861Z,0.00
2023-04-11T02:37:58.871Z,0.00
2023-04-11T02:38:58.878Z,0.00
2023-04-11T02:39:58.879Z,0.00
2023-04-11T02:40:58.884Z,0.00
2023-04-11T02:41:58.900Z,0.00
2023-04-11T02:42:58.919Z,0.00
2023-04-11T02:43:58.897Z,0.00
2023-04-11T02:44:58.904Z,0.00
2023-04-11T02:46:09.625Z,0.00
2023-04-11T02:46:58.923Z,0.00
2023-04-11T02:47:58.957Z,0.00
2023-04-11T02:48:58.926Z,0.00
2023-04-11T02:49:58.933Z,0.00
2023-04-11T02:50:58.937Z,0.00
2023-04-11T02:51:58.953Z,0.00
2023-04-11T02:52:58.945Z,0.00
2023-04-11T02:53:58.960Z,0.00
2023-04-11T02:54:58.951Z,0.00
2023-04-11T02:55:58.966Z,0.00
2023-04-11T02:56:58.977Z,0.00
2023-04-11T02:57:58.975Z,0.00
2023-04-11T02:58:59.148Z,0.00
2023-04-11T02:59:58.990Z,0.00
2023-04-11T03:00:58.984Z,0.00
2023-04-11T03:01:59.088Z,0.00
2023-04-11T03:02:59.108Z,0.00
2023-04-11T03:03:59.215Z,0.00
2023-04-11T03:04:59.001Z,0.00
2023-04-11T03:05:59.011Z,0.00
2023-04-11T03:06:59.011Z,0.00
2023-04-11T03:07:59.034Z,0.00
2023-04-11T03:08:59.082Z,0.00
2023-04-11T03:09:59.030Z,0.00
2023-04-11T03:10:59.035Z,0.00
2023-04-11T03:11:59.051Z,0.00
2023-04-11T03:12:59.041Z,0.00
2023-04-11T03:13:59.052Z,0.00
2023-04-11T03:14:59.072Z,0.00
2023-04-11T03:15:59.087Z,0.00
2023-04-11T03:16:59.057Z,0.00
2023-04-11T03:17:59.088Z,0.00
2023-04-11T03:18:59.075Z,0.00
2023-04-11T03:19:59.074Z,0.00
2023-04-11T03:20:59.087Z,0.00
2023-04-11T03:21:59.085Z,0.00
2023-04-11T03:22:59.093Z,0.00
2023-04-11T03:23:59.093Z,0.00
2023-04-11T03:24:59.097Z,0.00
2023-04-11T03:25:59.108Z,0.00
2023-04-11T03:26:59.118Z,0.00
2023-04-11T03:27:59.138Z,0.00
2023-04-11T03:28:59.126Z,0.00
2023-04-11T03:29:59.136Z,0.00
2023-04-11T03:30:59.185Z,0.00
2023-04-11T03:31:59.152Z,0.00
2023-04-11T03:32:59.153Z,0.00
2023-04-11T03:33:59.147Z,0.00
2023-04-11T03:34:59.173Z,0.00
2023-04-11T03:35:59.193Z,0.00
2023-04-11T03:36:59.169Z,0.00
2023-04-11T03:37:59.174Z,0.00
2023-04-11T03:38:59.185Z,0.00
2023-04-11T03:39:59.179Z,0.00
2023-04-11T03:40:59.180Z,0.00
2023-04-11T03:41:59.185Z,0.00
2023-04-11T03:42:59.189Z,0.00
2023-04-11T03:43:59.211Z,0.00
2023-04-11T03:44:59.219Z,0.00
2023-04-11T03:45:59.213Z,0.00
2023-04-11T03:46:59.441Z,0.00
2023-04-11T03:47:59.242Z,0.00
2023-04-11T03:48:59.219Z,0.00
2023-04-11T03:49:59.249Z,0.00
2023-04-11T03:50:59.243Z,0.00
2023-04-11T03:51:59.246Z,0.00
2023-04-11T03:52:59.241Z,0.00
2023-04-11T03:53:59.253Z,0.00
2023-04-11T03:54:59.273Z,0.00
2023-04-11T03:55:59.260Z,0.00
2023-04-11T03:56:59.261Z,0.00
2023-04-11T03:57:59.267Z,0.00
2023-04-11T03:58:59.269Z,0.00
2023-04-11T03:59:59.278Z,0.00
2023-04-11T04:00:59.288Z,4.00
2023-04-11T04:01:59.424Z,4.00
2023-04-11T04:02:59.418Z,0.00
2023-04-11T04:03:59.751Z,4.00
2023-04-11T04:04:59.361Z,4.00
2023-04-11T04:05:59.312Z,4.00
2023-04-11T04:06:59.305Z,4.00
2023-04-11T04:07:59.327Z,4.00
2023-04-11T04:08:59.315Z,8.00
2023-04-11T04:09:59.320Z,8.00
2023-04-11T04:10:59.342Z,8.00
2023-04-11T04:11:59.334Z,16.00
2023-04-11T04:12:59.342Z,16.00
2023-04-11T04:13:59.356Z,24.00
2023-04-11T04:14:59.349Z,24.00
2023-04-11T04:16:01.235Z,24.00
2023-04-11T04:16:59.552Z,28.00
2023-04-11T04:17:59.399Z,24.00
2023-04-11T04:18:59.393Z,28.00
2023-04-11T04:19:59.383Z,28.00
2023-04-11T04:20:59.382Z,36.00
2023-04-11T04:21:59.381Z,40.00
2023-04-11T04:22:59.390Z,52.00
2023-04-11T04:23:59.396Z,56.00
2023-04-11T04:24:59.398Z,68.00
2023-04-11T04:25:59.405Z,76.00
2023-04-11T04:26:59.406Z,92.00
2023-04-11T04:27:59.410Z,112.00
2023-04-11T04:28:59.435Z,132.00
2023-04-11T04:30:03.510Z,148.00
2023-04-11T04:30:59.435Z,160.00
2023-04-11T04:31:59.525Z,176.00
2023-04-11T04:32:59.471Z,196.00
2023-04-11T04:33:59.437Z,208.00
2023-04-11T04:34:59.482Z,220.00
2023-04-11T04:35:59.506Z,228.00
2023-04-11T04:36:59.506Z,236.00
2023-04-11T04:37:59.459Z,248.00
2023-04-11T04:38:59.463Z,256.00
2023-04-11T04:39:59.468Z,264.00
2023-04-11T04:40:59.494Z,272.00
2023-04-11T04:41:59.485Z,276.00
2023-04-11T04:42:59.483Z,284.00
2023-04-11T04:43:59.503Z,300.00
2023-04-11T04:44:59.510Z,308.00
2023-04-11T04:45:59.512Z,304.00
2023-04-11T04:46:59.499Z,312.00
2023-04-11T04:47:59.538Z,340.00
2023-04-11T04:49:00.991Z,384.00
2023-04-11T04:49:59.519Z,436.00
2023-04-11T04:50:59.557Z,492.00
2023-04-11T04:51:59.530Z,564.00
2023-04-11T04:52:59.533Z,624.00
2023-04-11T04:53:59.574Z,604.00
2023-04-11T04:54:59.564Z,508.00
2023-04-11T04:55:59.546Z,456.00
2023-04-11T04:56:59.550Z,448.00
2023-04-11T04:57:59.571Z,456.00
2023-04-11T04:58:59.556Z,448.00
2023-04-11T04:59:59.569Z,420.00
2023-04-11T05:00:59.638Z,404.00
2023-04-11T05:01:59.640Z,412.00
2023-04-11T05:02:59.663Z,444.00
2023-04-11T05:04:00.174Z,440.00
2023-04-11T05:04:59.601Z,416.00
2023-04-11T05:05:59.589Z,380.00
2023-04-11T05:06:59.632Z,320.00
2023-04-11T05:07:59.625Z,304.00
2023-04-11T05:08:59.608Z,288.00
2023-04-11T05:09:59.622Z,276.00
2023-04-11T05:10:59.625Z,416.00
2023-04-11T05:11:59.623Z,700.00
2023-04-11T05:12:59.634Z,800.00
2023-04-11T05:13:59.636Z,872.00
2023-04-11T05:14:59.636Z,924.00
2023-04-11T05:15:59.652Z,1028.00
2023-04-11T05:16:59.740Z,1208.00
2023-04-11T05:17:59.723Z,1428.00
2023-04-11T05:18:59.665Z,1652.00
2023-04-11T05:19:59.668Z,1940.00
2023-04-11T05:20:59.680Z,2316.00
2023-04-11T05:21:59.674Z,2548.00
2023-04-11T05:22:59.701Z,2516.00
2023-04-11T05:23:59.687Z,2212.00
2023-04-11T05:24:59.682Z,1828.00
2023-04-11T05:25:59.696Z,1668.00
2023-04-11T05:26:59.701Z,1620.00
2023-04-11T05:27:59.707Z,1620.00
2023-04-11T05:28:59.709Z,1684.00
2023-04-11T05:29:59.717Z,1768.00
2023-04-11T05:30:59.749Z,1872.00
2023-04-11T05:31:59.737Z,1964.00
2023-04-11T05:32:59.768Z,1992.00
2023-04-11T05:33:59.730Z,1940.00
2023-04-11T05:34:59.742Z,1700.00
2023-04-11T05:35:59.799Z,1704.00
2023-04-11T05:36:59.755Z,1888.00
2023-04-11T05:37:59.754Z,2084.00
2023-04-11T05:38:59.784Z,2180.00
2023-04-11T05:39:59.762Z,2076.00
2023-04-11T05:40:59.768Z,1896.00
2023-04-11T05:41:59.768Z,1780.00
2023-04-11T05:42:59.793Z,1764.00
2023-04-11T05:43:59.796Z,1756.00
2023-04-11T05:44:59.798Z,1808.00
2023-04-11T05:45:59.832Z,1884.00
2023-04-11T05:46:59.812Z,1920.00
2023-04-11T05:47:59.838Z,2044.00
2023-04-11T05:48:59.823Z,2272.00
2023-04-11T05:49:59.844Z,2388.00
2023-04-11T05:50:59.836Z,2244.00
2023-04-11T05:51:59.833Z,2024.00
2023-04-11T05:52:59.848Z,1820.00
2023-04-11T05:53:59.841Z,1688.00
2023-04-11T05:54:59.865Z,1512.00
2023-04-11T05:55:59.850Z,1320.00
2023-04-11T05:56:59.851Z,1364.00
2023-04-11T05:57:59.857Z,1512.00
2023-04-11T05:58:59.857Z,1692.00
2023-04-11T05:59:59.869Z,1944.00
2023-04-11T06:00:59.917Z,1988.00
2023-04-11T06:01:59.910Z,1956.00
2023-04-11T06:02:59.957Z,1996.00
2023-04-11T06:04:00.300Z,2072.00
2023-04-11T06:04:59.905Z,2060.00
2023-04-11T06:05:59.893Z,1960.00
2023-04-11T06:06:59.903Z,1920.00
2023-04-11T06:07:59.914Z,1852.00
2023-04-11T06:08:59.918Z,1760.00
2023-04-11T06:09:59.916Z,1848.00
2023-04-11T06:10:59.981Z,2032.00
2023-04-11T06:11:59.926Z,2172.00
2023-04-11T06:12:59.933Z,2336.00
2023-04-11T06:13:59.939Z,2348.00
2023-04-11T06:14:59.938Z,2212.00
2023-04-11T06:15:59.959Z,1940.00
2023-04-11T06:16:59.947Z,1864.00
2023-04-11T06:17:59.970Z,1744.00
2023-04-11T06:18:59.976Z,1652.00
2023-04-11T06:19:59.961Z,1724.00
2023-04-11T06:20:59.972Z,2272.00
2023-04-11T06:21:59.991Z,3324.00
2023-04-11T06:22:59.986Z,4176.00
2023-04-11T06:23:59.983Z,3784.00
2023-04-11T06:25:00.033Z,4248.00
2023-04-11T06:25:59.997Z,4380.00
2023-04-11T06:27:00.029Z,4204.00
2023-04-11T06:28:00.026Z,3760.00
2023-04-11T06:29:00.022Z,3548.00
2023-04-11T06:30:00.016Z,3620.00
2023-04-11T06:31:00.097Z,3876.00
2023-04-11T06:32:00.042Z,3920.00
2023-04-11T06:33:00.120Z,4012.00
2023-04-11T06:34:00.042Z,4308.00
2023-04-11T06:35:00.059Z,4380.00
2023-04-11T06:36:00.094Z,4616.00
2023-04-11T06:37:00.062Z,4788.00
2023-04-11T06:38:00.061Z,4932.00
2023-04-11T06:39:00.106Z,4684.00
2023-04-11T06:40:00.132Z,4544.00
2023-04-11T06:41:00.120Z,4976.00
2023-04-11T06:42:00.113Z,5636.00
2023-04-11T06:43:00.175Z,6004.00
2023-04-11T06:44:00.145Z,5988.00
2023-04-11T06:45:00.129Z,5836.00
2023-04-11T06:46:00.124Z,6116.00
2023-04-11T06:47:00.151Z,5944.00
2023-04-11T06:48:00.207Z,5352.00
2023-04-11T06:49:00.132Z,4176.00
2023-04-11T06:50:00.161Z,2236.00
2023-04-11T06:51:00.137Z,1564.00
2023-04-11T06:52:00.157Z,1456.00
2023-04-11T06:53:00.158Z,1512.00
2023-04-11T06:54:00.171Z,1556.00
2023-04-11T06:55:00.160Z,1828.00
2023-04-11T06:56:00.180Z,2560.00
2023-04-11T06:57:00.161Z,3368.00
2023-04-11T06:58:00.174Z,3324.00
2023-04-11T06:59:00.223Z,3424.00
2023-04-11T07:00:00.206Z,4140.00
2023-04-11T07:01:00.194Z,4692.00
2023-04-11T07:02:00.325Z,4488.00
2023-04-11T07:03:00.387Z,5036.00
2023-04-11T07:04:00.595Z,7056.00
2023-04-11T07:05:00.221Z,8760.00
2023-04-11T07:06:00.211Z,8940.00
2023-04-11T07:07:00.223Z,7860.00
2023-04-11T07:08:00.231Z,7576.00
2023-04-11T07:09:00.231Z,7948.00
2023-04-11T07:10:00.251Z,8400.00
2023-04-11T07:11:00.245Z,8676.00
2023-04-11T07:12:00.245Z,8508.00
2023-04-11T07:13:00.256Z,8280.00
2023-04-11T07:14:00.271Z,8676.00
2023-04-11T07:15:00.428Z,9160.00
2023-04-11T07:16:00.303Z,9472.00
2023-04-11T07:17:00.277Z,9800.00
2023-04-11T07:18:00.356Z,9872.00
2023-04-11T07:19:00.304Z,9476.00
2023-04-11T07:20:00.287Z,9024.00
2023-04-11T07:21:00.305Z,9008.00
2023-04-11T07:22:00.335Z,9464.00
2023-04-11T07:23:00.301Z,9360.00
2023-04-11T07:24:00.323Z,9440.00
2023-04-11T07:25:00.320Z,9544.00
2023-04-11T07:26:00.322Z,9268.00
2023-04-11T07:31:39.798Z,9716.00
2023-04-11T07:35:05.585Z,9960.00
2023-04-11T07:36:05.741Z,9952.00
2023-04-11T07:37:05.593Z,10084.00
2023-04-11T07:40:51.539Z,8424.00
2023-04-11T07:41:51.481Z,8436.00
2023-04-11T07:52:13.609Z,8512.00
2023-04-11T08:23:05.768Z,15132.00
2023-04-11T08:24:03.885Z,17504.00
2023-04-11T08:25:03.885Z,13868.00
2023-04-11T08:26:03.905Z,9816.00
2023-04-11T08:27:03.898Z,8364.00
2023-04-11T08:28:03.903Z,7936.00
2023-04-11T08:29:03.905Z,7788.00
2023-04-11T08:30:03.923Z,10980.00
2023-04-11T08:31:04.057Z,17696.00
2023-04-11T08:32:03.935Z,22496.00
2023-04-11T08:33:04.274Z,16032.00
2023-04-11T08:34:06.740Z,13276.00
2023-04-11T08:35:03.951Z,9284.00
2023-04-11T08:36:05.211Z,6148.00
2023-04-11T08:37:03.961Z,2996.00
2023-04-11T08:38:03.985Z,2084.00
2023-04-11T08:39:04.003Z,2100.00
2023-04-11T08:40:03.999Z,3132.00
2023-04-11T08:41:03.992Z,4736.00
2023-04-11T08:42:03.994Z,6492.00
2023-04-11T08:43:04.004Z,11072.00
2023-04-11T08:44:04.005Z,15444.00
2023-04-11T08:45:04.021Z,17984.00
2023-04-11T08:46:04.104Z,17984.00
2023-04-11T08:47:04.393Z,18528.00
2023-04-11T08:48:04.071Z,18624.00
2023-04-11T08:49:04.036Z,19040.00
2023-04-11T08:50:04.045Z,15512.00
2023-04-11T08:51:04.047Z,14828.00
2023-04-11T08:52:04.052Z,14228.00
2023-04-11T08:53:04.067Z,15304.00
2023-04-11T08:54:04.073Z,18272.00
2023-04-11T08:55:04.180Z,20800.00
2023-04-11T08:56:04.088Z,19808.00
2023-04-11T08:57:04.089Z,22592.00
2023-04-11T08:58:04.099Z,34592.00
2023-04-11T08:59:04.097Z,46912.00
2023-04-11T09:00:04.341Z,65376.00
2023-04-11T09:01:04.123Z,37088.00
2023-04-11T09:02:04.279Z,22592.00
2023-04-11T10:43:43.991Z,23072.00
2023-04-11T10:44:43.975Z,26240.00
2023-04-11T10:45:43.982Z,74592.00
2023-04-11T12:08:22.331Z,18240.00
2023-04-11T12:09:22.310Z,20256.00
2023-04-11T12:10:22.315Z,18336.00
2023-04-11T12:11:22.330Z,18464.00
2023-04-11T12:12:22.339Z,22080.00
2023-04-11T12:13:22.478Z,87936.00
2023-04-11T12:14:22.352Z,31968.00
2023-04-11T12:15:22.356Z,30496.00
2023-04-11T12:16:22.437Z,34688.00
2023-04-11T12:17:22.389Z,36992.00
2023-04-11T12:18:22.384Z,59168.00
2023-04-11T12:19:22.392Z,57632.00
2023-04-11T12:20:22.403Z,53792.00
2023-04-11T12:21:22.405Z,84672.00
2023-04-11T12:22:22.418Z,38400.00
2023-04-11T12:23:25.883Z,101376.00
2023-04-11T14:58:45.263Z,8476.00
2023-04-11T14:59:45.247Z,10108.00
2023-04-11T15:00:45.244Z,12288.00
2023-04-11T15:01:45.330Z,13692.00
2023-04-11T15:02:45.344Z,13804.00
2023-04-11T15:03:45.359Z,12604.00
2023-04-11T15:04:45.380Z,16640.00
2023-04-11T15:05:45.287Z,31968.00
2023-04-11T15:06:45.299Z,11792.00
2023-04-11T15:07:45.304Z,10844.00
2023-04-11T15:08:45.306Z,11088.00
2023-04-11T15:09:45.322Z,11336.00
2023-04-11T15:10:45.337Z,10920.00
2023-04-11T15:11:45.328Z,9852.00
2023-04-11T15:14:08.111Z,10008.00
2023-04-11T15:15:07.965Z,10048.00
2023-04-11T15:16:08.041Z,12148.00
2023-04-11T15:17:07.986Z,16576.00
2023-04-11T15:18:08.018Z,19072.00
2023-04-11T15:19:08.005Z,17952.00
2023-04-11T15:20:08.086Z,18880.00
2023-04-11T15:21:08.014Z,19872.00
2023-04-11T15:22:08.019Z,18752.00
2023-04-11T15:23:08.030Z,17792.00
2023-04-11T15:24:08.043Z,16704.00
2023-04-11T15:25:08.048Z,19744.00
2023-04-11T17:17:02.410Z,2972.00
2023-04-11T17:18:02.276Z,3012.00
2023-04-11T17:19:02.260Z,3004.00
2023-04-11T17:20:02.260Z,2940.00
2023-04-11T17:21:02.272Z,2840.00
2023-04-11T17:22:02.263Z,2708.00
2023-04-11T17:23:02.267Z,2572.00
2023-04-11T17:24:02.307Z,2436.00
2023-04-11T17:25:02.277Z,2316.00
2023-04-11T17:26:02.284Z,2192.00
2023-04-11T17:27:02.299Z,2068.00
2023-04-11T17:28:02.311Z,1948.00
2023-04-11T17:29:02.304Z,1828.00
2023-04-11T17:30:02.313Z,1704.00
2023-04-11T17:31:02.457Z,1592.00
2023-04-11T17:32:02.331Z,1476.00
2023-04-11T17:33:02.412Z,1380.00
2023-04-11T17:34:02.336Z,1300.00
2023-04-11T17:35:02.371Z,1224.00
2023-04-11T17:36:02.382Z,1160.00
2023-04-11T17:37:02.350Z,1104.00
2023-04-11T17:38:02.360Z,1052.00
2023-04-11T17:39:02.374Z,1004.00
2023-04-11T17:40:02.386Z,960.00
2023-04-11T17:41:13.815Z,916.00
2023-04-11T17:42:02.374Z,872.00
2023-04-11T17:43:02.377Z,836.00
2023-04-11T17:44:02.390Z,796.00
2023-04-11T17:45:13.773Z,760.00
2023-04-11T17:46:02.436Z,720.00
2023-04-11T17:47:02.415Z,688.00
2023-04-11T17:48:02.455Z,648.00
2023-04-11T17:49:02.442Z,612.00
2023-04-11T17:50:02.434Z,576.00
2023-04-11T17:51:02.455Z,540.00
2023-04-11T17:52:02.447Z,508.00
2023-04-11T17:53:02.435Z,476.00
2023-04-11T17:54:02.439Z,444.00
2023-04-11T17:55:02.451Z,416.00
2023-04-11T17:56:02.454Z,384.00
2023-04-11T17:57:02.462Z,360.00
2023-04-11T17:58:02.468Z,332.00
2023-04-11T17:59:02.476Z,308.00
2023-04-11T18:00:02.497Z,280.00
2023-04-11T18:01:02.476Z,260.00
2023-04-11T18:02:02.619Z,236.00
2023-04-11T18:03:02.552Z,216.00
2023-04-11T18:04:02.798Z,196.00
2023-04-11T18:05:10.348Z,176.00
2023-04-11T18:06:02.516Z,160.00
2023-04-11T18:07:02.518Z,148.00
2023-04-11T18:08:02.568Z,128.00
2023-04-11T18:09:02.549Z,116.00
2023-04-11T18:10:02.526Z,104.00
2023-04-11T18:11:02.530Z,92.00
2023-04-11T18:12:02.541Z,84.00
2023-04-11T18:13:02.543Z,72.00
2023-04-11T18:14:02.550Z,64.00
2023-04-11T18:15:02.555Z,56.00
2023-04-11T18:16:02.587Z,48.00
2023-04-11T18:17:02.567Z,40.00
2023-04-11T18:18:02.605Z,36.00
2023-04-11T18:19:02.591Z,28.00
2023-04-11T18:20:02.586Z,24.00
2023-04-11T18:21:04.086Z,24.00
2023-04-11T18:22:02.598Z,20.00
2023-04-11T18:23:02.601Z,16.00
2023-04-11T18:24:02.627Z,16.00
2023-04-11T18:25:02.612Z,12.00
2023-04-11T18:26:02.644Z,8.00
2023-04-11T18:27:02.614Z,8.00
2023-04-11T18:28:02.618Z,8.00
2023-04-11T18:29:02.641Z,8.00
2023-04-11T18:44:57.042Z,0.00
2023-04-11T18:45:56.678Z,0.00
2023-04-11T18:46:58.528Z,0.00
2023-04-11T18:47:56.787Z,0.00
2023-04-11T18:48:56.689Z,0.00
2023-04-11T18:49:56.671Z,0.00
2023-04-11T18:50:56.682Z,0.00
2023-04-11T18:51:56.679Z,0.00
2023-04-11T18:53:01.317Z,0.00
2023-04-11T18:53:56.840Z,0.00
2023-04-11T18:54:56.688Z,0.00
2023-04-11T18:55:56.701Z,0.00
2023-04-11T18:56:58.153Z,0.00
2023-04-11T18:57:59.320Z,0.00
2023-04-11T18:59:04.361Z,0.00
2023-04-11T18:59:57.159Z,0.00
2023-04-11T19:00:56.763Z,0.00
2023-04-11T19:01:56.950Z,0.00
2023-04-11T19:02:56.913Z,0.00
2023-04-11T19:03:57.177Z,0.00
2023-04-11T19:04:56.978Z,0.00
2023-04-11T19:05:56.793Z,0.00
2023-04-11T19:06:56.741Z,0.00
2023-04-11T19:07:56.758Z,0.00
2023-04-11T19:08:56.763Z,0.00
2023-04-11T19:09:56.759Z,0.00
2023-04-11T19:10:56.767Z,0.00
2023-04-11T19:11:56.769Z,0.00
2023-04-11T19:12:56.771Z,0.00
2023-04-11T19:13:56.902Z,0.00
2023-04-11T19:14:56.789Z,0.00
2023-04-11T19:15:56.800Z,0.00
2023-04-11T19:16:56.839Z,0.00
2023-04-11T19:17:56.822Z,0.00
2023-04-11T19:18:56.804Z,0.00
2023-04-11T19:19:56.805Z,0.00
2023-04-11T19:20:56.804Z,0.00
2023-04-11T19:21:56.808Z,0.00
2023-04-11T19:22:56.827Z,0.00
2023-04-11T19:23:57.004Z,0.00
2023-04-11T19:24:56.839Z,0.00
2023-04-11T19:25:56.836Z,0.00
2023-04-11T19:26:56.828Z,0.00
2023-04-11T19:27:56.835Z,0.00
2023-04-11T19:28:56.837Z,0.00
2023-04-11T19:29:56.865Z,0.00
2023-04-11T19:30:56.858Z,0.00
2023-04-11T19:31:56.900Z,0.00
2023-04-11T19:32:57.015Z,0.00
2023-04-11T19:33:57.191Z,0.00
2023-04-11T19:34:56.872Z,0.00
2023-04-11T19:35:56.939Z,0.00
2023-04-11T19:36:56.876Z,0.00
2023-04-11T19:37:56.892Z,0.00
2023-04-11T19:38:56.884Z,0.00
2023-04-11T19:39:56.889Z,0.00
2023-04-11T19:40:56.906Z,0.00
2023-04-11T19:41:56.899Z,0.00
2023-04-11T19:42:56.910Z,0.00
2023-04-11T19:43:57.110Z,0.00
2023-04-11T19:44:56.919Z,0.00
2023-04-11T19:45:56.968Z,0.00
2023-04-11T19:46:56.921Z,0.00
2023-04-11T19:47:56.993Z,0.00
2023-04-11T19:48:56.954Z,0.00
2023-04-11T19:49:56.941Z,0.00
2023-04-11T19:50:56.939Z,0.00
2023-04-11T19:51:56.945Z,0.00
2023-04-11T19:52:56.947Z,0.00
2023-04-11T19:53:57.215Z,0.00
2023-04-11T19:54:57.007Z,0.00
2023-04-11T19:55:56.997Z,0.00
2023-04-11T19:56:56.968Z,0.00
2023-04-11T19:57:57.001Z,0.00
2023-04-11T19:58:56.983Z,0.00
2023-04-11T19:59:56.975Z,0.00
2023-04-11T20:00:57.016Z,0.00
2023-04-11T20:01:57.047Z,0.00
2023-04-11T20:02:57.212Z,0.00
2023-04-11T20:03:57.256Z,0.00
2023-04-11T20:04:57.034Z,0.00
2023-04-11T20:05:57.003Z,0.00
2023-04-11T20:06:57.011Z,0.00
2023-04-11T20:07:57.018Z,0.00
2023-04-11T20:08:57.033Z,0.00
2023-04-11T20:09:57.020Z,0.00
2023-04-11T20:10:57.027Z,0.00
2023-04-11T20:11:57.033Z,0.00
2023-04-11T20:12:57.030Z,0.00
2023-04-11T20:13:57.212Z,0.00
2023-04-11T20:14:57.048Z,0.00
2023-04-11T20:15:57.055Z,0.00
2023-04-11T20:16:57.116Z,0.00
2023-04-11T20:17:57.070Z,0.00
2023-04-11T20:18:57.066Z,0.00
2023-04-11T20:19:57.059Z,0.00
2023-04-11T20:20:57.089Z,0.00
2023-04-11T20:21:57.069Z,0.00
2023-04-11T20:22:57.080Z,0.00
2023-04-11T20:23:57.362Z,0.00
2023-04-11T20:24:57.094Z,0.00
2023-04-11T20:25:57.099Z,0.00
2023-04-11T20:26:57.118Z,0.00
2023-04-11T20:27:57.091Z,0.00
2023-04-11T20:28:57.097Z,0.00
2023-04-11T20:29:57.107Z,0.00
2023-04-11T20:30:57.114Z,0.00
2023-04-11T20:31:57.114Z,0.00
2023-04-11T20:32:57.138Z,0.00
2023-04-11T20:33:57.262Z,0.00
2023-04-11T20:34:57.160Z,0.00
2023-04-11T20:35:57.174Z,0.00
2023-04-11T20:36:57.156Z,0.00
2023-04-11T20:37:57.142Z,0.00
2023-04-11T20:38:57.135Z,0.00
2023-04-11T20:39:57.149Z,0.00
2023-04-11T20:40:57.159Z,0.00
2023-04-11T20:41:57.157Z,0.00
2023-04-11T20:42:57.153Z,0.00
2023-04-11T20:43:57.276Z,0.00
2023-04-11T20:44:57.177Z,0.00
2023-04-11T20:45:57.187Z,0.00
2023-04-11T20:46:57.202Z,0.00
2023-04-11T20:47:57.256Z,0.00
2023-04-11T20:48:57.175Z,0.00
2023-04-11T20:49:57.185Z,0.00
2023-04-11T20:50:57.196Z,0.00
2023-04-11T20:51:57.192Z,0.00
2023-04-11T20:52:57.210Z,0.00
2023-04-11T20:53:57.458Z,0.00
2023-04-11T20:54:57.196Z,0.00
2023-04-11T20:55:57.203Z,0.00
2023-04-11T20:56:57.217Z,0.00
2023-04-11T20:57:57.220Z,0.00
2023-04-11T20:58:57.221Z,0.00
2023-04-11T20:59:57.224Z,0.00
2023-04-11T21:00:57.230Z,0.00
2023-04-11T21:01:57.287Z,0.00
2023-04-11T21:02:57.395Z,0.00
2023-04-11T21:03:57.615Z,0.00
2023-04-11T21:04:57.252Z,0.00
2023-04-11T21:05:57.241Z,0.00
2023-04-11T21:06:57.254Z,0.00
2023-04-11T21:07:57.249Z,0.00
2023-04-11T21:08:57.283Z,0.00
2023-04-11T21:09:57.264Z,0.00
2023-04-11T21:10:57.259Z,0.00
2023-04-11T21:11:57.270Z,0.00
2023-04-11T21:12:57.271Z,0.00
2023-04-11T21:13:57.441Z,0.00
2023-04-11T21:14:57.280Z,0.00
2023-04-11T21:15:57.316Z,0.00
2023-04-11T21:16:57.284Z,0.00
2023-04-11T21:17:57.328Z,0.00
2023-04-11T21:18:57.291Z,0.00
2023-04-11T21:19:57.294Z,0.00
2023-04-11T21:20:57.298Z,0.00
2023-04-11T21:21:57.321Z,0.00
2023-04-11T21:22:57.312Z,0.00
2023-04-11T21:23:57.424Z,0.00
2023-04-11T21:24:57.455Z,0.00
2023-04-11T21:25:57.325Z,0.00
2023-04-11T21:26:57.329Z,0.00
2023-04-11T21:27:57.325Z,0.00
2023-04-11T21:28:57.337Z,0.00
2023-04-11T21:29:57.341Z,0.00
2023-04-11T21:30:57.363Z,0.00
2023-04-11T21:31:57.348Z,0.00
2023-04-11T21:32:57.458Z,0.00
2023-04-11T21:33:57.462Z,0.00
2023-04-11T21:34:57.358Z,0.00
2023-04-11T21:35:57.408Z,0.00
2023-04-11T21:36:57.357Z,0.00